Details From SADF - San Fernando
To SACO - Ambrosio L V Taravella
Flight Number -
Tags Multipart Generated
Created
Modified
Stats Distance 340 nm / 629 km
Max Altitude 0 ft / 0 m
Waypoints 3
Social Downloads 11
Likes 0
Share VATSIM

Download

Looking for another format? Having issues loading an existing format? Contact us
Advertisement - Login to hide

Notes

Generated

Route

SADF ASEMI SACO

ID Type Via Altitude Latitude Longitude Leg Dist Tot Dist Heading (true) Name
O SADF APT - 0 ft / 0 m -34.45986˚ -58.59704˚ - 0 nm - -
ASEMI FIX - 0 ft / 0 m -31.39694˚ -64.08250˚ 332 nm 332 nm 302° / 305° -
O SACO APT - 0 ft / 0 m -31.32481˚ -64.20926˚ 7 nm 339 nm 304° / 304° -

Altitude Profile

Advertisement - Login to hide

Weather


0- 5 10 15 20 25 30 35+ Temperature / ° C

Clouds and Precipitation
Forecast for 2018-06-20 06:00 UTC. Updated 6 hours ago

Ground ~20,000 ft ~40,000 ft Winds

SADF

Details ICAO SADF
Name San Fernando
Region Argentina
Timezone America/Argentina/Buenos_Aires (UTC-3.0)
Stats Elevation 10 ft / 3 m (AMSL)
Location -34.454044° -58.590226°
Runways 1
Magnetic Variation 8.978° W

METAR

SADF 200900Z 00000KT 9000 MIFG NSC 07/06 Q1018

Decode

TAF

TAF SADF 200500Z 2006/2106 VRB03KT CAVOK TX18/2018Z TN09/2011Z BECMG 2007/2009 4000 BR BECMG 2013/2016 9999 SCT025 BECMG 2100/2102 27010KT 8000 RADZ BKN040

Decode

Departure Runways

ID Width Length Bearing (true) Bearing (mag) Surface Threshold Offset Overrun Length
05 131 ft / 40 m 5,904 ft / 1,800 m 44.03° 53.01° Asphalt 0 ft / 0 m 0 ft / 0 m
23 131 ft / 40 m 5,904 ft / 1,800 m 224.02° 233.00° Asphalt 899 ft / 274 m 0 ft / 0 m

SACO

Details ICAO SACO (COR)
Name AMBROSIO L V TARAVELLA
Region Argentina
Timezone America/Argentina/Cordoba (UTC-3.0)
Stats Elevation 1,604 ft / 489 m (AMSL)
Location -31.313499° -64.204123°
Runways 2
Magnetic Variation 5.650° W

METAR

SACO 200900Z 27006KT CAVOK 07/04 Q1017 NOSIG

Decode

TAF

TAF SACO 200500Z 2006/2106 27005KT CAVOK TX22/2018Z TN06/2010Z BECMG 2013/2016 05010KT

Decode

Destination Runways

ID Width Length Bearing (true) Bearing (mag) Surface Threshold Offset Overrun Length
05 148 ft / 45 m 8,091 ft / 2,466 m 44.19° 49.84° Asphalt 840 ft / 256 m 0 ft / 0 m
18 148 ft / 45 m 10,441 ft / 3,182 m 179.75° 185.40° Concrete 0 ft / 0 m 0 ft / 0 m
23 148 ft / 45 m 8,091 ft / 2,466 m 224.18° 229.83° Asphalt 0 ft / 0 m 82 ft / 25 m
36 148 ft / 45 m 10,441 ft / 3,182 m 359.75° 5.40° Concrete 0 ft / 0 m 460 ft / 140 m

Approach Navaids

Runway Type Ident Frequency Range Bearing (true) Bearing (mag) Slope Elevation
18 Localiser CB 110.30 MHz 18 nm / 33 km 179.96° 185.61° - 1,604 ft / 489 m (AMSL)
18 Glidescope CB 110.30 MHz 10 nm / 19 km 179.75° 185.40° 2.50° 1,604 ft / 489 m (AMSL)
18 DME CB 110.30 MHz 18 nm / 33 km - - - 1,523 ft / 464 m (AMSL)

Popular Alternatives